Latest Weather Observations for Albany Airport

IDW60801

Issued at 12:05 am WST Sunday 23 November 2014 (issued every 30 minutes, with the page automatically refreshed every 10 minutes)

About weather observations | Map of weather stations | Latest weather observations for WA | Other Formats
Station Details ID: 009999 Name: ALBANY AIRPORT Lat: -34.94 Lon: 117.82 Height: 68.4 m
Data from the previous 72 hours. | See also: Recent months at Albany Airport
Date/Time
WST
Temp
°C
App
Temp
°C
Dew
Point
Rel
Hum
%
Delta-T
°C
Wind Press
QNH
hPa
Press
MSL
hPa
Rain
since 9 am
mm
Dir
 
Spd
km/h
Gust
km/h
Spd
kts
Gust
kts
23/12:00am 13.2 8.8 10.3 82 1.5 W 24 35 13 19 1011.9 1011.9 0.2
 
Date/Time
WST
Temp
°C
App
Temp
°C
Dew
Point
Rel
Hum
%
Delta-T
°C
Wind Press
QNH
hPa
Press
MSL
hPa
Rain
since 9 am
mm
Dir
 
Spd
km/h
Gust
km/h
Spd
kts
Gust
kts
22/11:30pm 13.7 9.4 9.2 74 2.3 W 22 33 12 18 1012.1 - 0.2
22/11:00pm 13.5 9.6 8.7 73 2.4 WNW 19 24 10 13 1012.2 - 0.2
22/10:30pm 14.0 9.9 8.7 70 2.7 WNW 20 28 11 15 1012.3 - 0.2
22/10:00pm 14.0 10.0 8.4 69 2.8 WNW 19 22 10 12 1012.5 - 0.2
22/09:30pm 13.9 10.2 7.9 67 3.0 WNW 17 20 9 11 1012.6 - 0.2
22/09:00pm 14.1 10.2 7.2 63 3.4 WNW 17 22 9 12 1012.6 1012.6 0.2
22/08:30pm 14.4 9.5 6.8 60 3.7 W 22 32 12 17 1012.5 - 0.2
22/08:00pm 14.4 9.6 7.3 62 3.5 W 22 33 12 18 1012.4 - 0.2
22/07:30pm 14.8 9.6 8.9 68 3.0 W 26 35 14 19 1012.1 - 0.2
22/07:00pm 15.1 10.0 9.1 67 3.1 WSW 26 35 14 19 1011.7 - 0.2
22/06:30pm 15.7 10.7 9.6 67 3.2 WSW 26 35 14 19 1011.4 - 0.2
22/06:00pm 16.3 10.5 9.6 64 3.5 WSW 30 46 16 25 1011.2 1011.3 0.2
22/05:30pm 17.3 11.7 8.8 57 4.4 WSW 28 41 15 22 1011.1 - 0.2
22/05:00pm 17.6 11.7 9.0 57 4.5 WSW 30 37 16 20 1010.9 - 0.2
22/04:30pm 18.0 12.5 9.0 55 4.7 WSW 28 39 15 21 1011.0 - 0.2
22/04:00pm 18.6 12.5 8.4 51 5.3 WSW 30 43 16 23 1011.0 - 0.2
22/03:30pm 18.9 13.1 8.0 49 5.6 W 28 39 15 21 1011.1 - 0.2
22/03:00pm 19.2 13.1 8.2 49 5.7 SW 30 39 16 21 1011.2 1011.3 0.2
22/02:30pm 18.3 12.5 8.0 51 5.3 SW 28 39 15 21 1011.3 - 0.2
22/02:00pm 19.4 13.2 8.0 47 5.9 WSW 30 39 16 21 1011.4 - 0.2
22/01:42pm 19.2 13.4 8.0 48 5.8 WSW 28 46 15 25 1011.4 - 0.2
22/01:30pm 19.4 13.6 8.0 47 5.9 WSW 28 39 15 21 1011.4 - 0.2
22/01:00pm 18.9 13.5 7.8 48 5.7 W 26 35 14 19 1011.7 - 0.2
22/12:30pm 18.9 13.1 7.8 48 5.7 WSW 28 39 15 21 1011.7 - 0.2
22/12:00pm 18.0 12.6 7.8 51 5.2 WSW 26 37 14 20 1012.0 1012.0 0.2
22/11:30am 18.9 13.5 8.0 49 5.6 W 26 44 14 24 1012.0 - 0.2
22/11:00am 18.3 13.4 8.4 52 5.1 WSW 24 33 13 18 1012.0 - 0.0
22/10:30am 16.7 11.9 9.0 60 4.0 WSW 24 33 13 18 1012.3 - 0.0
22/10:00am 17.1 12.1 9.5 61 4.0 WSW 26 33 14 18 1012.2 - 0.0
22/09:30am 16.5 12.6 10.7 68 3.1 W 22 39 12 21 1012.2 - 0.0
22/09:05am 14.9 11.4 12.1 83 1.5 WSW 22 32 12 17 1012.3 - 0.0
22/09:00am 15.1 11.5 12.0 82 1.7 WSW 22 - 12 - - 1012.3 1.0
22/08:57am 14.9 11.5 12.5 85 1.3 WSW 22 32 12 17 1012.3 - 1.2
22/08:30am 15.2 12.8 12.5 84 1.5 W 17 26 9 14 1012.2 - 1.0
22/08:00am 14.1 12.6 13.0 93 0.6 W 13 19 7 10 1012.1 - 1.0
22/07:34am 13.7 11.7 12.8 94 0.5 W 15 20 8 11 1011.9 - 1.0
22/07:28am 13.6 11.6 12.7 94 0.5 W 15 20 8 11 1011.9 - 1.0
22/07:00am 13.0 10.1 12.3 95 0.4 W 19 26 10 14 1011.7 - 1.0
22/06:47am 12.9 10.3 12.0 94 0.5 WNW 17 26 9 14 1011.6 - 0.8
22/06:30am 12.8 10.2 12.1 95 0.4 WNW 17 22 9 12 1011.1 - 0.4
22/05:30am 12.0 10.0 11.4 96 0.3 WNW 13 15 7 8 1010.7 - 0.4
22/05:29am 12.0 10.0 11.4 96 0.3 WNW 13 15 7 8 1010.7 - 0.4
22/05:00am 12.0 10.3 11.2 95 0.4 W 11 15 6 8 1010.5 - 0.4
22/04:36am 12.1 9.6 11.1 94 0.5 W 15 20 8 11 1010.2 - 0.4
22/04:30am 12.3 9.5 11.4 94 0.5 W 17 20 9 11 1010.1 - 0.4
22/04:08am 12.4 9.3 11.5 94 0.5 W 19 24 10 13 1010.0 - 0.2
22/04:00am 12.2 9.4 11.3 94 0.5 W 17 20 9 11 1009.9 - 0.2
22/03:30am 11.8 9.2 10.8 94 0.5 WNW 15 20 8 11 1009.5 - 0.2
22/03:12am 12.3 9.5 11.4 94 0.5 W 17 24 9 13 1009.6 - 0.2
22/03:00am 12.5 9.1 11.4 93 0.6 W 20 26 11 14 1009.8 1009.9 0.2
22/02:48am 12.9 8.7 11.0 88 1.0 W 24 39 13 21 1009.9 - 0.2
22/02:30am 12.4 9.7 10.5 88 1.0 WNW 15 17 8 9 1009.6 - 0.2
22/02:00am 11.8 9.8 10.0 89 0.9 WNW 11 15 6 8 1009.5 - 0.2
22/01:30am 13.0 10.3 10.5 85 1.3 WNW 15 20 8 11 1009.7 - 0.2
22/01:00am 13.4 10.9 10.9 85 1.3 WNW 15 20 8 11 1009.8 - 0.2
22/12:30am 13.2 10.3 10.9 86 1.2 W 17 20 9 11 1010.0 - 0.2
22/12:00am 13.4 10.4 10.7 84 1.4 WNW 17 20 9 11 1010.5 1010.6 0.2
 
Date/Time
WST
Temp
°C
App
Temp
°C
Dew
Point
Rel
Hum
%
Delta-T
°C
Wind Press
QNH
hPa
Press
MSL
hPa
Rain
since 9 am
mm
Dir
 
Spd
km/h
Gust
km/h
Spd
kts
Gust
kts
21/11:30pm 12.9 10.7 10.8 87 1.1 WNW 13 17 7 9 1010.2 - 0.2
21/11:00pm 13.3 10.7 10.8 85 1.3 WNW 15 19 8 10 1010.2 - 0.2
21/10:30pm 13.8 11.0 11.2 84 1.4 WNW 17 24 9 13 1010.5 - 0.2
21/10:00pm 14.1 11.7 11.5 84 1.4 W 15 20 8 11 1010.8 - 0.2
21/09:30pm 14.1 11.8 11.7 85 1.3 WNW 15 17 8 9 1010.7 - 0.2
21/09:00pm 14.1 11.5 11.9 86 1.2 W 17 24 9 13 1010.7 1010.8 0.2
21/08:30pm 14.5 12.2 11.7 83 1.5 W 15 19 8 10 1010.6 - 0.2
21/08:00pm 14.1 12.2 11.9 86 1.2 WNW 13 17 7 9 1010.3 - 0.2
21/07:30pm 14.4 11.8 12.0 85 1.3 W 17 22 9 12 1010.0 - 0.2
21/07:00pm 14.5 10.9 11.7 83 1.5 WSW 22 28 12 15 1009.8 - 0.2
21/06:30pm 15.6 12.0 10.7 72 2.6 WSW 20 30 11 16 1009.5 - 0.2
21/06:00pm 15.4 11.2 11.1 75 2.3 WSW 24 35 13 19 1009.2 1009.3 0.2
21/05:35pm 14.7 11.7 12.7 88 1.1 WSW 20 28 11 15 1009.2 - 0.2
21/05:30pm 14.7 11.4 12.9 89 1.0 WSW 22 32 12 17 1009.2 - 0.2
21/05:03pm 14.5 8.6 12.5 88 1.1 WSW 35 48 19 26 1009.3 - 0.2
21/05:00pm 15.2 9.1 11.7 79 1.9 WSW 35 48 19 26 1009.2 - 0.2
21/04:39pm 16.4 10.8 11.4 72 2.7 WSW 32 52 17 28 1008.9 - 0.2
21/04:30pm 16.9 11.3 11.6 71 2.9 WSW 32 46 17 25 1008.7 - 0.2
21/04:00pm 18.6 12.9 11.1 61 4.1 WSW 32 43 17 23 1008.4 - 0.2
21/03:41pm 18.5 13.5 10.8 61 4.2 WSW 28 46 15 25 1008.4 - 0.2
21/03:30pm 18.2 12.7 10.6 61 4.1 W 30 44 16 24 1008.3 - 0.2
21/03:11pm 18.4 13.1 9.8 57 4.6 W 28 46 15 25 1008.2 - 0.2
21/03:00pm 18.5 14.0 11.4 63 3.9 WSW 26 37 14 20 1008.3 1008.4 0.2
21/02:30pm 18.6 14.6 11.9 65 3.7 WSW 24 37 13 20 1008.5 - 0.2
21/02:00pm 18.3 13.0 11.2 63 3.9 WSW 30 41 16 22 1008.3 - 0.2
21/01:30pm 18.9 13.5 12.3 65 3.7 WSW 32 46 17 25 1008.5 - 0.2
21/01:12pm 18.2 13.5 11.9 66 3.5 WSW 28 50 15 27 1008.5 - 0.2
21/01:00pm 19.4 14.5 11.4 60 4.4 WSW 28 35 15 19 1008.5 - 0.2
21/12:30pm 19.8 15.5 10.6 55 5.0 W 24 35 13 19 1008.5 - 0.2
21/12:00pm 20.7 15.5 10.2 51 5.7 WSW 28 39 15 21 1008.6 1008.7 0.2
21/11:29am 19.1 13.3 9.3 53 5.2 W 30 48 16 26 1008.8 - 0.2
21/11:00am 18.1 13.7 10.5 61 4.1 W 24 33 13 18 1009.0 - 0.2
21/10:30am 17.7 12.2 10.6 63 3.8 W 30 41 16 22 1009.0 - 0.0
21/10:00am 16.2 11.5 12.0 76 2.3 WSW 28 35 15 19 1009.2 - 0.0
21/09:30am 18.1 13.1 9.4 57 4.6 W 26 37 14 20 1008.7 - 0.0
21/09:00am 16.6 14.1 12.4 76 2.3 W 17 - 9 - - 1009.0 3.0
21/08:58am 16.5 14.1 12.5 77 2.2 W 17 24 9 13 1008.9 - 2.8
21/08:30am 17.0 11.4 10.2 64 3.6 W 30 44 16 24 1008.8 - 2.8
21/08:00am 17.6 14.5 11.6 68 3.3 W 19 28 10 15 1008.5 - 2.8
21/07:30am 16.0 12.8 12.0 77 2.2 W 20 26 11 14 1008.5 - 2.8
21/07:00am 15.5 12.6 12.2 81 1.8 W 19 28 10 15 1008.5 - 2.8
21/06:30am 15.4 13.3 12.5 83 1.6 W 15 22 8 12 1008.1 - 2.8
21/06:00am 14.6 12.2 12.6 88 1.1 WNW 17 20 9 11 1007.8 1007.9 2.8
21/05:30am 14.4 12.8 12.8 90 0.9 W 13 19 7 10 1007.7 - 2.8
21/05:21am 14.4 12.5 13.0 91 0.8 W 15 19 8 10 1007.6 - 2.8
21/05:03am 14.5 13.1 13.4 93 0.6 W 13 17 7 9 1007.7 - 2.8
21/05:00am 14.5 13.0 13.2 92 0.7 W 13 17 7 9 1007.6 - 2.8
21/04:30am 14.6 13.6 13.5 93 0.6 W 11 15 6 8 1007.0 - 2.8
21/04:00am 14.7 13.5 14.0 96 0.4 W 13 17 7 9 1007.0 - 2.8
21/03:30am 14.8 13.3 14.1 96 0.4 W 15 19 8 10 1007.1 - 2.8
21/03:01am 14.8 13.3 14.3 97 0.3 WNW 15 22 8 12 1007.1 - 2.8
21/03:00am 14.8 13.3 14.3 97 0.3 WNW 15 22 8 12 1007.1 1007.2 2.8
21/02:54am 14.8 12.9 14.3 97 0.3 WNW 17 22 9 12 1007.1 - 2.8
21/02:30am 14.8 12.9 14.3 97 0.3 WNW 17 20 9 11 1007.0 - 2.6
21/02:08am 14.8 12.6 14.3 97 0.3 WNW 19 22 10 12 1007.0 - 2.0
21/02:02am 14.8 12.9 14.1 96 0.4 WNW 17 20 9 11 1006.9 - 2.0
21/02:00am 14.8 12.9 14.1 96 0.4 WNW 17 20 9 11 1006.9 - 2.0
21/01:30am 14.8 12.9 14.1 96 0.4 WNW 17 20 9 11 1007.2 - 2.0
21/01:15am 14.8 12.9 14.3 97 0.3 WNW 17 19 9 10 1007.2 - 1.8
21/01:06am 14.8 13.3 14.3 97 0.3 WNW 15 22 8 12 1007.3 - 1.6
21/01:04am 14.8 13.3 14.3 97 0.3 WNW 15 22 8 12 1007.3 - 1.6
21/01:00am 14.8 13.3 14.3 97 0.3 NW 15 22 8 12 1007.3 - 1.6
21/12:30am 14.7 12.8 14.3 97 0.2 NW 17 22 9 12 1007.6 - 1.0
21/12:15am 14.8 12.9 14.3 97 0.3 WNW 17 20 9 11 1007.7 - 0.8
21/12:10am 14.8 12.9 14.3 97 0.3 NW 17 20 9 11 1007.7 - 0.8
21/12:00am 14.7 12.7 14.0 96 0.4 NW 17 22 9 12 1007.8 1007.9 0.8
 
Date/Time
WST
Temp
°C
App
Temp
°C
Dew
Point
Rel
Hum
%
Delta-T
°C
Wind Press
QNH
hPa
Press
MSL
hPa
Rain
since 9 am
mm
Dir
 
Spd
km/h
Gust
km/h
Spd
kts
Gust
kts
20/11:30pm 15.6 12.6 13.6 88 1.1 W 22 33 12 18 1008.3 - 0.6
20/11:28pm 15.8 12.7 13.5 86 1.3 W 22 33 12 18 1008.3 - 0.6
20/11:00pm 17.1 13.2 12.0 72 2.8 NW 24 33 13 18 1008.1 - 0.6
20/10:30pm 17.2 13.1 11.5 69 3.1 NW 24 33 13 18 1008.2 - 0.6
20/10:00pm 16.5 13.6 11.1 70 2.9 NW 17 26 9 14 1008.2 - 0.6
20/09:30pm 17.1 13.3 11.2 68 3.2 WNW 22 30 12 16 1008.2 - 0.6
20/09:00pm 16.4 14.2 12.0 75 2.4 WNW 15 19 8 10 1008.3 1008.4 0.6
20/08:30pm 16.3 14.0 11.9 75 2.4 WNW 15 19 8 10 1008.1 - 0.6
20/08:00pm 17.1 14.5 12.0 72 2.8 W 17 20 9 11 1008.0 - 0.6
20/07:30pm 18.0 14.8 11.8 67 3.4 W 20 26 11 14 1007.8 - 0.6
20/07:00pm 18.8 14.1 12.0 64 3.8 W 28 37 15 20 1007.7 - 0.6
20/06:30pm 20.4 16.2 9.8 50 5.7 W 22 30 12 16 1007.3 - 0.6
20/06:00pm 21.1 16.8 9.4 47 6.3 W 22 30 12 16 1007.1 1007.2 0.6
20/05:30pm 21.7 16.0 8.2 42 7.1 W 28 35 15 19 1007.0 - 0.6
20/05:00pm 22.7 16.1 7.9 38 7.8 W 32 43 17 23 1006.8 - 0.6
20/04:30pm 23.0 16.6 7.0 35 8.3 WNW 30 46 16 25 1006.7 - 0.6
20/04:23pm 23.1 16.3 7.5 36 8.2 WNW 33 52 18 28 1006.8 - 0.6
20/04:00pm 23.8 16.5 7.2 34 8.7 W 35 50 19 27 1006.6 - 0.6
20/03:47pm 23.8 16.9 8.8 38 8.1 W 35 54 19 29 1006.7 - 0.6
20/03:30pm 23.6 15.9 7.2 35 8.6 W 37 52 20 28 1006.6 - 0.6
20/03:00pm 24.1 16.8 7.1 33 8.9 W 35 48 19 26 1006.5 1006.6 0.6
20/02:54pm 24.2 17.8 8.6 37 8.4 W 32 50 17 27 1006.6 - 0.6
20/02:30pm 23.0 16.5 8.1 38 7.9 WNW 32 46 17 25 1006.8 - 0.6
20/02:00pm 22.8 17.7 9.1 41 7.4 W 26 39 14 21 1007.0 - 0.6
20/01:30pm 20.6 15.9 9.4 48 6.0 W 24 33 13 18 1007.5 - 0.6
20/01:00pm 20.2 15.0 8.9 48 6.0 WNW 26 44 14 24 1007.5 - 0.6
20/12:30pm 20.8 15.1 9.9 49 5.9 W 30 48 16 26 1008.6 - 0.6
20/12:21pm 20.7 15.3 9.5 48 6.0 W 28 48 15 26 1008.6 - 0.6
20/12:00pm 21.4 17.2 13.4 60 4.6 W 28 44 15 24 1008.8 1008.9 0.6
20/11:30am 19.2 16.1 15.7 80 2.1 W 26 41 14 22 1009.2 - 0.6
20/11:00am 17.2 14.8 15.5 90 1.0 W 22 30 12 16 1009.7 - 0.4
20/10:47am 17.0 14.6 15.3 90 1.0 WSW 22 32 12 17 1009.7 - 0.2
20/10:30am 17.6 13.9 15.0 85 1.5 WSW 28 43 15 23 1009.4 - 0.0
20/10:00am 21.7 15.8 10.6 49 6.1 WNW 32 43 17 23 1009.0 - 0.0
20/09:30am 20.2 15.2 11.1 56 5.0 WNW 28 35 15 19 1009.2 - 0.0
20/09:00am 20.8 14.0 10.6 52 5.6 NW 37 48 20 26 1009.4 1009.5 0.2
20/08:30am 19.7 15.0 12.0 61 4.3 NNW 28 39 15 21 1009.8 - 0.2
20/08:00am 19.1 15.2 12.1 64 3.9 NNW 24 35 13 19 1010.1 - 0.2
20/07:30am 17.3 13.3 11.8 70 3.0 NW 24 32 13 17 1010.6 - 0.2
20/07:00am 16.6 13.2 11.2 70 2.9 NNW 20 28 11 15 1010.6 - 0.2
20/06:30am 15.5 11.2 10.6 72 2.6 N 24 32 13 17 1010.6 - 0.2
20/06:00am 15.2 11.5 10.3 72 2.6 NNW 20 30 11 16 1010.5 1010.6 0.2
20/05:30am 14.6 10.9 10.0 74 2.4 N 20 28 11 15 1010.4 - 0.2
20/05:00am 13.6 10.0 9.9 78 1.9 N 19 22 10 12 1010.2 - 0.2
20/04:30am 13.5 10.4 10.2 80 1.7 NNW 17 20 9 11 1010.5 - 0.2
20/04:00am 13.1 9.9 10.0 81 1.6 NNW 17 22 9 12 1010.3 - 0.2
20/03:30am 13.5 10.7 10.0 79 1.8 N 15 20 8 11 1010.5 - 0.2
20/03:00am 13.1 9.9 10.0 81 1.6 N 17 20 9 11 1010.5 1010.6 0.2
20/02:30am 13.3 10.2 10.2 81 1.6 N 17 20 9 11 1011.0 - 0.2
20/02:00am 13.5 10.3 10.0 79 1.8 N 17 22 9 12 1011.2 - 0.2
20/01:30am 13.4 10.8 10.7 84 1.4 N 15 19 8 10 1012.2 - 0.2
20/01:00am 11.9 10.7 10.4 90 0.8 NNW 7 9 4 5 1012.9 - 0.2
20/12:30am 12.5 10.7 11.0 90 0.8 N 11 13 6 7 1013.2 - 0.2

Other Formats:

Comma delimited format used in spreadsheet applications
http://www.bom.gov.au/fwo/IDW60801/IDW60801.94802.axf

JavaScript Object Notation format (JSON) in row-major order
http://www.bom.gov.au/fwo/IDW60801/IDW60801.94802.json